Terminal Aerodrome Forecast
Issued by NWS Paducah, KY

Home | Current Version | Previous Version | Text Only | Print | Product List | Glossary On
Versions: 1 2 3 4 5 6 7 8 9 10 11 12 13 14 15 16 17 18
000
FTUS43 KPAH 152320
TAFEVV
TAF
KEVV 152320Z 1600/1624 VRB03KT P6SM SCT040 BKN250
     FM161200 17005KT P6SM SCT025 BKN040
     FM161700 19009KT P6SM VCSH SCT015 BKN030
     FM162300 19006KT P6SM BKN025=

USA.gov is the U.S. government's official web portal to all federal, state and local government web resources and services.